• Join FlightAware (Why Join?)
  • Login
  • US Flag 
02:20PM EST


 

Airport Tracker/Info


-or-


 

Live Flight TrackerFlight Track Log ✈ KAL1334 ✈ 08-Sep-2013 ✈ RKJY / RSU - RKSS / GMP

Flight Track Log - Related Links

Times and Time Zones

All times are in EDT time to prevent confusion due to time zone crossing. See the KAL1334 flight status page for this flight to view local times or setup timezone preferences in your user account.

Time Position Orientation Groundspeed Altitude Reporting Facility
EDT Latitude Longitude Course Direction KTS MPH feet Rate Location/Type
10:56PM 34.9278 127.5895 346° North  Level Estimated
10:57PM 35.0157 127.5637 346° North  Level Estimated
10:58PM 35.1037 127.5378 346° North  Level Estimated
10:59PM 35.1917 127.5118 346° North  Level Estimated
11:00PM 35.2796 127.4858 346° North  Level Estimated
11:01PM 35.3675 127.4598 346° North  Level Estimated
11:02PM 35.4555 127.4336 346° North  Level Estimated
11:03PM 35.5434 127.4074 346° North  Level Estimated
11:04PM 35.6313 127.3812 346° North  Level Estimated
11:05PM 35.7192 127.3549 346° North  Level Estimated
11:06PM 35.8072 127.3286 346° North  Level Estimated
11:07PM 35.8736 127.3086 346° North  Level Estimated
11:08PM 35.9401 127.2886 346° North  Level Estimated
11:09PM 36.0065 127.2685 346° North  Level Estimated
11:10PM 36.0730 127.2485 346° North  Level Estimated
11:11PM 36.1395 127.2284 346° North  Level Estimated
11:12PM 36.2059 127.2083 346° North  Level Estimated
11:13PM 36.2724 127.1881 346° North  Level Estimated
11:14PM 36.3388 127.1679 346° North  Level Estimated
11:15PM 36.4052 127.1476 346° North  Level Estimated
11:16PM 36.4717 127.1274 346° North  Level Estimated
11:17PM 36.5381 127.1071 346° North  Level Estimated
11:18PM 36.6045 127.0867 346° North  Level Estimated
11:19PM 36.6710 127.0663 346° North  Level Estimated
11:20PM 36.7374 127.0459 346° North  Level Estimated
11:21PM 36.8038 127.0255 346° North  Level Estimated
11:22PM 36.8702 127.0050 346° North  Level Estimated
11:23PM 36.9366 126.9845 346° North  Level Estimated
11:24PM 37.0031 126.9639 346° North  Level Estimated
11:25PM 37.0695 126.9433 346° North  Level Estimated
11:26PM 37.1359 126.9227 346° North  Level Estimated
11:27PM 37.2023 126.9020 346° North  Level Estimated
11:28PM 37.2687 126.8813 346° North  Level Estimated
11:29PM 37.3350 126.8606 346° North  Level Estimated
11:30PM 37.4014 126.8398 346° North  Level Estimated
11:31PM 37.4678 126.8190 346° North  Level Estimated
11:32PM 37.5342 126.7982 346° North  Level Estimated
11:33PM 37.5583 126.7906 346° North  Level Estimated
11:34PM 37.5583 126.7906 288° West  Level Estimated
11:35PM 37.5583 126.7906 288° West  Level Estimated
11:36PM 37.5583 126.7906 288° West  Level Estimated